Time;durP1;ratioP1;P1;durP2;ratioP2;P2;SDS_P1;SDS_P2;PMS_P1;PMS_P2;Temp;Humidity;BMP_temperature;BMP_pressure;BME280_temperature;BME280_humidity;BME280_pressure;Samples;Min_cycle;Max_cycle;Signal;HPM_P1;HPM_P2
2022/05/05 00:00:11;;;;;;;;;3.40;3.20;;;;;9.09;56.20;100197.16;5098878;28;8815;-63
2022/05/05 00:02:39;;;;;;;;;7.00;4.80;;;;;9.16;55.83;100198.44;5099136;28;8824;-63
2022/05/05 00:05:06;;;;;;;;;4.00;4.00;;;;;9.25;55.67;100190.69;5098959;28;8858;-63
2022/05/05 00:07:35;;;;;;;;;4.00;3.40;;;;;9.36;55.26;100196.09;5098605;28;8910;-63
2022/05/05 00:14:23;;;;;;;;;3.20;3.20;;;;;9.46;55.51;100189.16;5098775;28;9465;-63
2022/05/05 00:15:37;;;;;;;;;7.80;6.40;;;;;9.65;55.14;100189.53;5097013;28;8990;-63
2022/05/05 00:18:05;;;;;;;;;4.00;4.00;;;;;9.69;54.77;100184.84;5096707;28;8870;-63
2022/05/05 00:20:33;;;;;;;;;5.20;4.00;;;;;9.69;54.99;100191.03;5097338;28;8848;-63
2022/05/05 00:23:00;;;;;;;;;3.60;3.60;;;;;9.70;54.99;100182.09;5097197;28;8839;-63
2022/05/05 00:25:28;;;;;;;;;6.60;6.60;;;;;9.72;54.86;100181.97;5097552;28;8839;-63
2022/05/05 00:27:56;;;;;;;;;5.20;4.00;;;;;9.74;55.06;100182.72;5098149;28;8844;-63
2022/05/05 00:30:23;;;;;;;;;7.40;7.00;;;;;9.77;55.04;100182.47;5097815;28;9545;-63
2022/05/05 00:32:51;;;;;;;;;1.00;1.00;;;;;9.81;55.23;100184.81;5095959;28;8820;-63
2022/05/05 00:35:18;;;;;;;;;4.50;4.50;;;;;9.84;54.95;100189.06;5096367;28;8833;-63
2022/05/05 00:37:46;;;;;;;;;1.00;1.00;;;;;9.86;54.89;100188.00;5096653;28;8853;-63
2022/05/05 00:40:14;;;;;;;;;4.00;4.00;;;;;9.87;55.23;100183.53;5096881;28;8885;-64
2022/05/05 00:42:42;;;;;;;;;6.80;6.00;;;;;9.86;54.71;100182.66;5096492;28;8987;-63
2022/05/05 00:45:09;;;;;;;;;4.00;4.00;;;;;9.85;54.94;100186.28;5097691;28;8861;-63
2022/05/05 00:47:37;;;;;;;;;6.20;5.20;;;;;9.83;55.17;100182.91;5097885;28;8916;-63
2022/05/05 00:50:05;;;;;;;;;6.25;6.00;;;;;9.82;54.95;100178.56;5097843;28;8870;-63
2022/05/05 00:52:33;;;;;;;;;6.00;4.00;;;;;9.82;55.15;100181.22;5097589;28;8882;-63
2022/05/05 00:55:00;;;;;;;;;0.00;0.00;;;;;9.83;55.04;100182.03;5098203;28;8928;-63
2022/05/05 00:57:29;;;;;;;;;3.80;2.60;;;;;9.82;55.36;100177.69;5097617;28;8831;-63
2022/05/05 00:59:57;;;;;;;;;4.25;3.50;;;;;9.83;55.45;100179.38;5097046;28;8828;-63
2022/05/05 01:02:25;;;;;;;;;6.00;6.00;;;;;9.83;55.51;100174.06;5097550;28;8939;-63
2022/05/05 01:04:52;;;;;;;;;6.40;5.60;;;;;9.89;55.09;100178.94;5097397;28;9556;-63
2022/05/05 01:07:23;;;;;;;;;5.20;5.20;;;;;9.90;55.05;100176.19;5097435;28;8924;-63
2022/05/05 01:09:51;;;;;;;;;8.20;6.80;;;;;9.95;55.11;100181.16;5097023;28;9797;-63
2022/05/05 01:12:20;;;;;;;;;5.40;5.20;;;;;9.98;55.25;100183.59;5097727;28;8861;-63
2022/05/05 01:14:47;;;;;;;;;4.00;4.00;;;;;9.99;55.12;100180.81;5097450;28;8855;-63
2022/05/05 01:17:15;;;;;;;;;7.25;6.50;;;;;10.01;55.07;100183.38;5097832;28;9645;-63
2022/05/05 01:19:43;;;;;;;;;7.00;6.75;;;;;10.00;54.71;100179.84;5096273;28;8829;-64
2022/05/05 01:22:11;;;;;;;;;6.25;5.50;;;;;9.98;55.15;100176.47;5097035;28;8849;-62
2022/05/05 01:30:10;;;;;;;;;6.00;6.00;;;;;9.88;55.30;100175.41;5097158;28;8887;-63
2022/05/05 01:32:37;;;;;;;;;3.50;3.00;;;;;9.88;55.24;100179.91;5097481;28;8828;-63
2022/05/05 01:35:05;;;;;;;;;2.50;1.00;;;;;9.85;55.13;100183.63;5097345;28;8820;-63
2022/05/05 01:37:33;;;;;;;;;4.00;3.25;;;;;9.83;55.67;100174.94;5097318;28;8820;-63
2022/05/05 01:40:01;;;;;;;;;4.50;4.00;;;;;9.83;55.67;100177.59;5096125;28;8839;-63
2022/05/05 01:42:29;;;;;;;;;3.75;3.00;;;;;9.86;55.29;100179.19;5095193;28;8843;-63
2022/05/05 01:44:56;;;;;;;;;7.00;7.00;;;;;9.86;55.54;100182.66;5095393;28;8846;-63
2022/05/05 01:47:24;;;;;;;;;4.00;4.00;;;;;9.84;55.25;100186.41;5095605;28;8824;-63
2022/05/05 01:49:52;;;;;;;;;8.20;6.60;;;;;9.87;55.23;100188.84;5094916;28;8937;-63
2022/05/05 01:52:20;;;;;;;;;1.00;1.00;;;;;9.88;55.46;100185.22;5095250;28;8844;-63
2022/05/05 01:54:48;;;;;;;;;6.00;4.80;;;;;9.91;55.73;100191.19;5094822;28;8819;-64
2022/05/05 01:57:16;;;;;;;;;4.50;4.50;;;;;9.94;55.63;100196.25;5095146;28;8924;-64
2022/05/05 01:59:44;;;;;;;;;6.00;5.00;;;;;10.00;55.29;100195.81;5094927;28;9523;-63
2022/05/05 02:02:12;;;;;;;;;4.00;4.00;;;;;10.05;55.29;100190.19;5094815;28;8833;-63
2022/05/05 02:04:39;;;;;;;;;6.20;5.60;;;;;10.09;55.46;100199.66;5095121;28;8919;-63
2022/05/05 02:07:08;;;;;;;;;4.00;4.00;;;;;10.13;55.24;100201.97;5094694;28;8845;-63
2022/05/05 02:09:36;;;;;;;;;7.25;6.00;;;;;10.14;55.10;100200.16;5094054;28;8845;-63
2022/05/05 02:12:03;;;;;;;;;3.00;2.00;;;;;10.14;55.15;100203.66;5094504;28;8842;-64
2022/05/05 02:14:31;;;;;;;;;3.50;3.25;;;;;10.14;55.40;100203.66;5085804;28;8847;-63
2022/05/05 02:16:59;;;;;;;;;9.00;7.00;;;;;10.15;55.35;100209.81;5075690;28;8846;-63
2022/05/05 02:19:27;;;;;;;;;4.00;4.00;;;;;10.17;55.46;100214.06;5076020;28;8856;-64
2022/05/05 02:21:55;;;;;;;;;4.50;4.00;;;;;10.20;54.79;100218.31;5076333;28;8845;-63
2022/05/05 02:24:22;;;;;;;;;3.75;3.75;;;;;10.21;55.71;100220.03;5075378;28;8848;-64
2022/05/05 02:26:50;;;;;;;;;6.00;6.00;;;;;10.20;55.52;100219.19;5074161;28;8860;-66
2022/05/05 02:29:19;;;;;;;;;6.50;6.00;;;;;10.22;55.28;100219.91;5073745;28;8828;-63
2022/05/05 02:31:46;;;;;;;;;4.00;4.00;;;;;10.26;55.53;100218.72;5075101;28;8852;-64
2022/05/05 02:34:14;;;;;;;;;4.00;3.25;;;;;10.27;55.19;100228.44;5075562;28;8840;-63
2022/05/05 02:39:28;;;;;;;;;7.25;6.75;;;;;10.22;55.49;100222.59;5075825;28;8852;-63
2022/05/05 02:41:56;;;;;;;;;0.00;0.00;;;;;10.17;55.79;100219.41;5075592;28;8840;-63
2022/05/05 02:44:24;;;;;;;;;4.00;4.00;;;;;10.14;55.46;100216.97;5076007;28;9533;-63
2022/05/05 02:46:51;;;;;;;;;6.50;6.25;;;;;10.12;55.85;100220.72;5075413;28;8874;-63
2022/05/05 02:49:20;;;;;;;;;7.75;6.75;;;;;10.08;55.66;100205.94;5075759;28;8840;-63
2022/05/05 02:51:48;;;;;;;;;8.60;5.80;;;;;10.05;55.98;100209.69;5075732;28;8857;-63
2022/05/05 02:57:01;;;;;;;;;6.00;6.00;;;;;10.01;55.90;100208.16;5075156;28;8832;-64
2022/05/05 02:59:29;;;;;;;;;7.50;7.50;;;;;9.99;56.24;100207.41;5075363;28;8854;-63
2022/05/05 03:01:57;;;;;;;;;5.60;5.60;;;;;9.99;56.57;100214.53;5079933;28;8989;-64
2022/05/05 03:04:24;;;;;;;;;6.50;6.00;;;;;9.98;56.18;100213.72;5095300;28;9606;-63
2022/05/05 03:06:52;;;;;;;;;5.50;5.50;;;;;9.97;55.82;100212.00;5095371;28;8863;-63
2022/05/05 03:09:20;;;;;;;;;6.25;6.00;;;;;9.96;56.29;100212.13;5095995;28;8853;-64
2022/05/05 03:11:48;;;;;;;;;2.50;2.50;;;;;9.95;56.39;100210.41;5095671;28;8838;-65
2022/05/05 03:14:15;;;;;;;;;8.50;7.75;;;;;9.94;56.26;100217.53;5095543;28;9299;-64
2022/05/05 03:16:44;;;;;;;;;6.00;6.00;;;;;9.92;56.40;100216.81;5095436;28;8846;-68
2022/05/05 03:19:12;;;;;;;;;8.00;7.00;;;;;9.91;56.24;100220.44;5095274;28;8833;-64
2022/05/05 03:21:40;;;;;;;;;6.00;5.00;;;;;9.87;56.40;100220.78;5077267;28;8852;-63
2022/05/05 03:24:07;;;;;;;;;6.75;4.00;;;;;9.82;56.70;100212.25;5079123;28;8974;-63
2022/05/05 03:26:35;;;;;;;;;9.00;7.00;;;;;9.79;56.99;100220.47;5079181;28;8870;-64
2022/05/05 03:29:04;;;;;;;;;5.00;4.25;;;;;9.75;56.68;100221.63;5078990;28;8832;-63
2022/05/05 03:31:32;;;;;;;;;4.00;4.00;;;;;9.71;56.94;100215.69;5079260;28;8840;-63
2022/05/05 03:33:59;;;;;;;;;2.50;1.50;;;;;9.71;56.75;100220.19;5079186;28;9558;-63
2022/05/05 03:36:27;;;;;;;;;3.80;3.60;;;;;9.70;56.80;100226.44;5077846;28;8832;-63
2022/05/05 03:38:55;;;;;;;;;2.50;1.00;;;;;9.68;56.89;100228.34;5078722;28;8840;-63
2022/05/05 03:41:23;;;;;;;;;6.25;5.50;;;;;9.64;57.20;100225.06;5078880;28;9506;-63
2022/05/05 03:43:52;;;;;;;;;3.50;3.50;;;;;9.63;57.46;100234.00;5078946;28;9571;-64
2022/05/05 03:46:19;;;;;;;;;7.00;6.40;;;;;9.64;57.93;100232.22;5078594;28;8872;-63
2022/05/05 03:48:47;;;;;;;;;5.20;5.20;;;;;9.65;57.50;100233.91;5078816;28;8848;-63
2022/05/05 03:51:15;;;;;;;;;4.80;4.00;;;;;9.65;57.39;100237.41;5078618;28;8967;-63
2022/05/05 03:53:43;;;;;;;;;4.80;4.40;;;;;9.64;57.52;100234.88;5078928;28;8832;-63
2022/05/05 03:56:11;;;;;;;;;3.75;3.75;;;;;9.65;57.83;100232.06;5077669;28;8933;-63
2022/05/05 03:58:39;;;;;;;;;6.40;6.40;;;;;9.66;57.75;100244.41;5078503;28;8841;-63
2022/05/05 04:01:07;;;;;;;;;6.80;6.00;;;;;9.69;57.76;100235.38;5078224;28;8840;-63
2022/05/05 04:03:36;;;;;;;;;2.00;1.00;;;;;9.73;57.50;100243.00;5096627;28;8826;-62
2022/05/05 04:06:04;;;;;;;;;4.80;4.40;;;;;9.77;57.73;100246.31;5098760;28;9550;-63
2022/05/05 04:08:32;;;;;;;;;4.80;4.40;;;;;9.83;57.50;100243.22;5098749;28;8854;-64
2022/05/05 04:11:00;;;;;;;;;6.00;6.00;;;;;9.88;57.80;100233.09;5097993;28;8838;-63
2022/05/05 04:13:28;;;;;;;;;3.50;3.00;;;;;9.94;57.64;100249.47;5097784;28;8984;-65
2022/05/05 04:15:56;;;;;;;;;5.75;4.50;;;;;10.00;57.62;100240.19;5097863;28;8851;-64
2022/05/05 04:18:24;;;;;;;;;4.00;3.00;;;;;10.05;57.56;100244.25;5097789;28;8865;-63
2022/05/05 04:20:52;;;;;;;;;6.00;6.00;;;;;10.12;57.04;100244.66;5083107;28;8871;-64
2022/05/05 04:23:19;;;;;;;;;8.00;6.00;;;;;10.18;56.75;100247.72;5076073;28;8824;-64
2022/05/05 04:26:07;;;;;;;;;4.50;4.00;;;;;10.26;56.63;100250.66;5076961;28;8982;-63
2022/05/05 04:28:36;;;;;;;;;9.00;7.00;;;;;10.33;56.59;100256.41;5077030;28;8836;-63
2022/05/05 04:31:03;;;;;;;;;7.00;6.50;;;;;10.39;56.93;100262.09;5076865;28;8856;-63
2022/05/05 04:33:31;;;;;;;;;5.33;4.67;;;;;10.45;56.83;100255.47;5076705;28;8832;-63
2022/05/05 04:35:59;;;;;;;;;3.50;3.25;;;;;10.49;56.52;100259.63;5077634;28;8840;-63
2022/05/05 04:38:27;;;;;;;;;3.50;3.50;;;;;10.51;56.57;100255.03;5078269;28;8832;-63
2022/05/05 04:40:55;;;;;;;;;6.25;6.25;;;;;10.52;56.30;100257.59;5077618;28;8864;-64
2022/05/05 04:43:22;;;;;;;;;9.50;9.00;;;;;10.55;56.35;100254.69;5077641;28;8840;-63
2022/05/05 04:45:50;;;;;;;;;7.00;6.00;;;;;10.58;56.43;100267.78;5077568;28;9361;-63
2022/05/05 04:48:18;;;;;;;;;6.00;5.00;;;;;10.64;56.29;100266.47;5076989;28;8852;-63
2022/05/05 04:50:46;;;;;;;;;8.00;8.00;;;;;10.69;56.21;100273.16;5076201;28;8859;-64
2022/05/05 04:53:13;;;;;;;;;5.75;5.50;;;;;10.75;56.52;100272.69;5075467;28;8848;-64
2022/05/05 04:55:41;;;;;;;;;6.00;6.00;;;;;10.80;56.79;100272.34;5076509;28;8855;-63
2022/05/05 04:58:09;;;;;;;;;8.00;7.75;;;;;10.82;56.50;100270.41;5077101;28;9524;-63
2022/05/05 05:00:37;;;;;;;;;9.00;8.00;;;;;10.87;56.88;100274.44;5076742;28;8851;-63
2022/05/05 05:03:04;;;;;;;;;9.00;7.75;;;;;10.90;56.42;100284.00;5091513;28;8830;-63
2022/05/05 05:05:32;;;;;;;;;6.50;6.50;;;;;10.88;56.57;100276.13;5096479;28;8846;-63
2022/05/05 05:08:00;;;;;;;;;8.00;6.00;;;;;10.88;56.27;100278.81;5096819;28;8984;-63
2022/05/05 05:10:28;;;;;;;;;9.50;9.00;;;;;10.92;56.83;100280.25;5096091;28;8865;-64
2022/05/05 05:12:55;;;;;;;;;7.00;7.00;;;;;10.94;56.57;100286.31;5096142;28;8842;-64
2022/05/05 05:15:23;;;;;;;;;9.75;9.00;;;;;10.96;56.43;100289.72;5096796;28;8850;-64
2022/05/05 05:17:51;;;;;;;;;6.25;5.50;;;;;10.98;56.24;100289.59;5096741;28;8865;-63
2022/05/05 05:20:19;;;;;;;;;10.00;8.00;;;;;11.03;56.57;100293.63;5089503;28;8856;-64
2022/05/05 05:22:47;;;;;;;;;8.75;8.00;;;;;11.07;56.34;100297.75;5076250;28;8975;-64
2022/05/05 05:25:14;;;;;;;;;8.50;8.50;;;;;11.13;56.56;100299.94;5077218;28;8844;-63
2022/05/05 05:27:42;;;;;;;;;7.00;7.00;;;;;11.18;56.34;100292.47;5075808;28;9565;-63
2022/05/05 05:30:30;;;;;;;;;3.25;3.25;;;;;11.24;56.43;100299.97;5076082;28;8852;-63
2022/05/05 05:32:58;;;;;;;;;6.75;6.00;;;;;11.26;56.22;100308.72;5075867;28;8860;-64
2022/05/05 05:35:26;;;;;;;;;7.50;7.00;;;;;11.28;56.44;100312.09;5076121;28;8836;-64
2022/05/05 05:37:53;;;;;;;;;7.50;7.50;;;;;11.30;56.30;100304.00;5075608;28;8829;-63
2022/05/05 05:40:21;;;;;;;;;6.75;6.75;;;;;11.31;56.36;100306.53;5074336;28;8882;-64
2022/05/05 05:42:49;;;;;;;;;10.00;7.00;;;;;11.34;56.39;100303.66;5075141;28;8848;-64
2022/05/05 05:45:18;;;;;;;;;9.00;8.00;;;;;11.37;55.93;100313.22;5073592;28;8839;-63
2022/05/05 05:47:46;;;;;;;;;10.50;9.00;;;;;11.39;56.27;100304.13;5075378;28;8848;-64
2022/05/05 05:50:14;;;;;;;;;12.25;9.25;;;;;11.45;55.97;100308.97;5073449;28;8856;-63
2022/05/05 05:52:41;;;;;;;;;8.25;7.50;;;;;11.51;56.21;100308.53;5073209;28;8832;-63
2022/05/05 05:55:09;;;;;;;;;9.25;6.75;;;;;11.60;56.16;100307.84;5073608;28;8843;-64
2022/05/05 05:57:37;;;;;;;;;6.50;5.50;;;;;11.71;55.88;100312.34;5074023;28;8844;-63
2022/05/05 06:00:05;;;;;;;;;12.25;9.00;;;;;11.82;55.50;100315.84;5073361;28;8909;-63
2022/05/05 06:05:19;;;;;;;;;6.75;6.50;;;;;12.00;55.73;100312.59;5094094;28;8939;-64
2022/05/05 06:07:47;;;;;;;;;8.00;8.00;;;;;12.07;55.45;100319.13;5090247;28;8939;-63
2022/05/05 06:10:16;;;;;;;;;9.25;9.00;;;;;12.13;55.11;100310.63;5073431;28;9528;-63
2022/05/05 06:12:44;;;;;;;;;8.50;8.00;;;;;12.18;55.38;100318.28;5088435;28;8858;-64
2022/05/05 06:15:11;;;;;;;;;7.50;6.75;;;;;12.24;55.60;100315.13;5094017;28;8839;-64
2022/05/05 06:17:40;;;;;;;;;11.50;9.75;;;;;12.31;55.18;100317.16;5094064;28;8936;-63
2022/05/05 06:20:08;;;;;;;;;9.00;9.00;;;;;12.41;55.53;100322.63;5095235;28;8847;-63
2022/05/05 06:22:37;;;;;;;;;6.50;6.50;;;;;12.51;54.71;100323.56;5094244;28;8858;-63
2022/05/05 06:25:05;;;;;;;;;9.00;9.00;;;;;12.58;54.84;100324.75;5093902;28;9536;-63
2022/05/05 06:27:33;;;;;;;;;10.00;9.00;;;;;12.63;54.68;100322.56;5094345;28;9517;-63
2022/05/05 06:30:01;;;;;;;;;6.25;6.00;;;;;12.72;54.75;100322.66;5093870;28;8833;-63
2022/05/05 06:32:29;;;;;;;;;9.00;7.50;;;;;12.82;54.62;100325.41;5094750;28;8859;-64
2022/05/05 06:34:57;;;;;;;;;9.00;7.00;;;;;12.92;53.90;100313.81;5095085;28;8974;-63
2022/05/05 06:37:24;;;;;;;;;7.00;7.00;;;;;13.03;54.12;100321.00;5094350;28;8839;-64
2022/05/05 06:39:52;;;;;;;;;3.50;3.50;;;;;13.12;54.08;100326.41;5094512;28;8860;-64
2022/05/05 06:42:20;;;;;;;;;3.00;1.00;;;;;13.20;54.09;100328.47;5093888;28;8820;-64
2022/05/05 06:44:48;;;;;;;;;6.50;6.00;;;;;13.29;53.79;100336.53;5094181;28;8846;-63
2022/05/05 06:47:17;;;;;;;;;11.00;9.75;;;;;13.41;53.58;100332.84;5094526;28;8865;-63
2022/05/05 06:49:45;;;;;;;;;10.50;9.00;;;;;13.53;53.21;100331.78;5094111;28;8843;-64
2022/05/05 06:52:13;;;;;;;;;6.50;6.50;;;;;13.66;53.60;100336.94;5093974;28;8865;-63
2022/05/05 06:55:01;;;;;;;;;9.00;8.50;;;;;13.84;52.97;100340.69;5093627;28;8848;-64
2022/05/05 06:57:29;;;;;;;;;10.00;9.50;;;;;13.94;52.88;100337.09;5093488;28;8978;-64
2022/05/05 06:59:57;;;;;;;;;9.75;8.00;;;;;14.05;52.86;100333.47;5093976;28;8845;-63
2022/05/05 07:02:25;;;;;;;;;8.25;7.00;;;;;14.14;53.02;100338.03;5093951;28;8960;-63
2022/05/05 07:07:38;;;;;;;;;12.25;11.00;;;;;14.37;52.75;100340.41;5092564;28;8969;-63
2022/05/05 07:12:51;;;;;;;;;6.50;6.25;;;;;14.58;52.31;100359.09;5093737;28;9509;-64
2022/05/05 07:15:19;;;;;;;;;6.00;6.00;;;;;14.68;51.90;100352.78;5093549;28;8870;-63
2022/05/05 07:17:48;;;;;;;;;6.00;5.00;;;;;14.79;51.96;100359.84;5093612;28;9529;-63
2022/05/05 07:20:16;;;;;;;;;3.00;3.00;;;;;14.93;51.77;100354.06;5093541;28;8855;-64
2022/05/05 07:22:44;;;;;;;;;12.50;11.00;;;;;15.13;51.44;100359.31;5093637;28;8842;-63
2022/05/05 07:25:12;;;;;;;;;2.00;2.00;;;;;15.29;51.10;100361.41;5094029;28;8843;-63
2022/05/05 07:27:40;;;;;;;;;9.50;9.25;;;;;15.45;51.32;100362.59;5093761;28;8958;-63
2022/05/05 07:30:08;;;;;;;;;5.00;4.50;;;;;15.59;50.66;100362.16;5094266;28;8843;-63
2022/05/05 07:32:36;;;;;;;;;13.00;12.50;;;;;15.72;50.87;100364.53;5094150;28;8828;-64
2022/05/05 07:35:03;;;;;;;;;10.00;9.50;;;;;15.74;51.01;100363.41;5093150;28;8865;-64
2022/05/05 07:37:32;;;;;;;;;7.25;7.00;;;;;15.81;50.36;100371.72;5093005;28;8943;-64
2022/05/05 07:40:00;;;;;;;;;13.00;12.75;;;;;15.89;50.37;100374.53;5093599;28;8946;-63
2022/05/05 07:42:27;;;;;;;;;8.75;8.75;;;;;15.97;50.76;100374.66;5092533;28;8824;-65
2022/05/05 07:44:55;;;;;;;;;8.50;7.00;;;;;16.09;50.30;100374.31;5093724;28;8835;-64
2022/05/05 07:47:25;;;;;;;;;9.25;8.00;;;;;16.26;49.75;100371.72;5093282;28;9498;-64
2022/05/05 07:49:53;;;;;;;;;10.00;7.50;;;;;16.50;49.40;100365.84;5093310;28;9025;-64
2022/05/05 07:52:20;;;;;;;;;10.50;8.00;;;;;16.68;49.49;100370.28;5092983;28;8979;-64
2022/05/05 07:54:48;;;;;;;;;9.25;9.00;;;;;16.84;49.28;100372.28;5093242;28;8959;-64
2022/05/05 07:57:20;;;;;;;;;8.50;7.00;;;;;16.91;48.86;100368.88;5093258;28;8837;-63
2022/05/05 07:59:48;;;;;;;;;9.00;9.00;;;;;16.90;49.09;100372.56;5093500;28;8924;-63
2022/05/05 08:02:20;;;;;;;;;10.50;8.50;;;;;16.85;48.88;100368.63;5093358;28;8844;-64
2022/05/05 08:04:48;;;;;;;;;9.00;7.50;;;;;16.86;48.96;100370.31;5092369;28;9742;-64
2022/05/05 08:07:16;;;;;;;;;10.00;9.67;;;;;16.86;49.47;100376.53;5091302;28;8828;-64
2022/05/05 08:09:43;;;;;;;;;8.00;8.00;;;;;16.88;49.70;100379.94;5095023;28;8843;-64
2022/05/05 08:12:27;;;;;;;;;10.00;9.25;;;;;17.02;49.41;100375.88;5094723;28;8828;-64
2022/05/05 08:14:55;;;;;;;;;9.50;8.00;;;;;17.14;48.66;100382.72;5094777;28;8831;-64
2022/05/05 08:17:23;;;;;;;;;9.00;8.00;;;;;17.18;48.92;100382.28;5094768;28;8868;-64
2022/05/05 08:19:50;;;;;;;;;8.00;6.50;;;;;17.24;48.63;100380.81;5094081;28;8868;-64
2022/05/05 08:22:19;;;;;;;;;6.75;4.75;;;;;17.34;48.66;100384.28;5096268;28;8852;-63
2022/05/05 08:30:18;;;;;;;;;6.75;6.75;;;;;17.55;47.83;100388.34;5096447;28;8874;-64
2022/05/05 08:32:45;;;;;;;;;8.00;7.00;;;;;17.66;48.21;100384.56;5097275;28;8858;-63
2022/05/05 08:35:13;;;;;;;;;11.50;9.50;;;;;17.72;47.96;100387.50;5096923;28;8853;-63
2022/05/05 08:37:41;;;;;;;;;9.25;8.75;;;;;17.84;47.87;100386.25;5096291;28;8909;-63
2022/05/05 08:40:09;;;;;;;;;11.00;9.00;;;;;17.95;47.76;100388.69;5095008;28;8832;-63
2022/05/05 08:42:36;;;;;;;;;10.25;9.25;;;;;18.04;47.12;100382.34;5094299;28;8843;-63
2022/05/05 08:45:04;;;;;;;;;10.00;9.25;;;;;18.09;47.58;100385.44;5094584;28;8836;-63
2022/05/05 08:47:32;;;;;;;;;6.50;6.25;;;;;18.18;47.04;100391.69;5094369;28;8829;-63
2022/05/05 08:50:00;;;;;;;;;14.00;12.50;;;;;18.32;47.12;100385.75;5094829;28;8986;-64
2022/05/05 08:52:28;;;;;;;;;10.50;10.50;;;;;18.41;46.83;100385.63;5094022;28;8959;-63
2022/05/05 08:54:56;;;;;;;;;11.00;11.00;;;;;18.46;46.75;100388.72;5094897;28;8966;-63
2022/05/05 08:57:24;;;;;;;;;15.00;14.00;;;;;18.55;46.62;100393.13;5094348;28;8835;-63
2022/05/05 08:59:52;;;;;;;;;15.00;13.00;;;;;18.60;46.32;100387.25;5094998;28;8920;-63
2022/05/05 09:02:21;;;;;;;;;12.75;12.50;;;;;18.69;46.49;100387.13;5095219;28;8850;-62
2022/05/05 09:04:49;;;;;;;;;17.25;15.00;;;;;18.82;46.43;100384.78;5094966;28;8848;-62
2022/05/05 09:07:17;;;;;;;;;10.75;9.50;;;;;18.92;45.87;100390.06;5093307;28;8840;-62
2022/05/05 09:09:46;;;;;;;;;10.75;9.50;;;;;19.04;46.24;100386.06;5092807;28;10044;-63
2022/05/05 09:12:13;;;;;;;;;6.25;6.25;;;;;19.13;45.93;100388.59;5092324;28;8847;-63
2022/05/05 09:14:41;;;;;;;;;15.25;13.00;;;;;19.29;45.67;100398.63;5094976;28;8840;-65
2022/05/05 09:17:10;;;;;;;;;18.50;16.00;;;;;19.48;45.52;100396.44;5094256;28;8811;-64
2022/05/05 09:19:38;;;;;;;;;16.60;15.00;;;;;19.65;45.03;100400.84;5094605;28;8831;-63
2022/05/05 09:22:06;;;;;;;;;11.40;9.60;;;;;19.71;44.69;100399.34;5095127;28;8824;-63
2022/05/05 09:24:40;;;;;;;;;16.20;12.20;;;;;19.69;44.81;100391.41;5094970;28;9001;-67
2022/05/05 09:27:08;;;;;;;;;18.00;16.40;;;;;19.68;45.29;100392.41;5095326;28;8836;-65
2022/05/05 09:29:36;;;;;;;;;18.00;16.75;;;;;19.70;45.12;100403.91;5094422;28;8916;-63
2022/05/05 09:32:04;;;;;;;;;18.75;16.50;;;;;19.81;44.94;100389.19;5094843;28;8852;-64
2022/05/05 09:34:31;;;;;;;;;18.60;16.40;;;;;20.01;44.75;100399.47;5093981;28;8874;-63
2022/05/05 09:36:59;;;;;;;;;14.80;13.80;;;;;19.99;44.57;100401.53;5094479;28;8837;-63
2022/05/05 09:39:27;;;;;;;;;19.80;17.40;;;;;19.82;45.04;100401.69;5093892;28;9525;-63
2022/05/05 09:41:55;;;;;;;;;15.40;14.20;;;;;19.86;44.95;100397.66;5089590;28;8953;-63
2022/05/05 09:44:24;;;;;;;;;15.20;14.60;;;;;20.19;44.14;100405.56;5092896;28;8835;-62
2022/05/05 09:46:52;;;;;;;;;16.20;14.00;;;;;20.64;43.85;100389.53;5095663;28;8832;-62
2022/05/05 09:49:20;;;;;;;;;19.20;14.40;;;;;20.98;42.84;100401.78;5094954;28;8832;-63
2022/05/05 09:57:39;;;;;;;;;16.80;14.60;;;;;21.42;42.40;100392.00;5094714;28;8925;-62
2022/05/05 10:00:19;;;;;;;;;16.00;14.80;;;;;23.09;40.49;100393.22;5089394;28;8853;-62
2022/05/05 10:05:58;;;;;;;;;20.20;19.00;;;;;24.24;38.91;100396.50;5084205;28;8788;-62
2022/05/05 10:08:26;;;;;;;;;17.60;16.20;;;;;24.55;38.73;100388.75;5093268;28;8950;-62
2022/05/05 10:10:54;;;;;;;;;19.80;18.00;;;;;24.94;38.38;100394.44;5093156;28;8835;-62
2022/05/05 10:13:23;;;;;;;;;18.00;17.00;;;;;25.25;37.65;100389.34;5113352;28;8998;-63
2022/05/05 10:53:17;;;;;;;;;22.40;19.40;;;;;23.18;41.29;100397.53;5058864;28;8825;-64
2022/05/05 10:55:45;;;;;;;;;21.80;19.60;;;;;22.97;41.07;100397.44;5031739;28;8851;-64
2022/05/05 10:58:29;;;;;;;;;25.40;25.00;;;;;23.45;40.39;100404.97;5032519;28;8860;-63
2022/05/05 11:00:56;;;;;;;;;23.40;23.00;;;;;24.12;39.97;100395.38;5031290;28;8844;-63
2022/05/05 11:03:24;;;;;;;;;28.40;24.20;;;;;24.64;38.82;100387.59;5031715;28;8951;-63
2022/05/05 11:05:52;;;;;;;;;21.00;18.60;;;;;25.15;38.21;100388.84;5030761;28;8967;-63
2022/05/05 11:08:20;;;;;;;;;31.80;27.40;;;;;25.63;36.84;100394.91;5031329;28;9673;-63
2022/05/05 11:10:48;;;;;;;;;31.40;27.80;;;;;26.09;36.58;100386.75;5031659;28;8844;-64
2022/05/05 11:13:16;;;;;;;;;22.00;19.40;;;;;26.57;35.79;100393.66;5030547;28;8860;-63
2022/05/05 11:24:00;;;;;;;;;23.80;22.80;;;;;28.70;33.62;100387.91;5025500;28;8870;-64
2022/05/05 11:26:27;;;;;;;;;27.60;24.60;;;;;29.11;32.97;100388.06;5013232;28;8854;-65
2022/05/05 11:29:00;;;;;;;;;22.60;21.60;;;;;29.48;32.16;100381.44;5013684;28;8854;-64
2022/05/05 11:31:30;;;;;;;;;27.00;24.20;;;;;29.61;32.36;100383.16;5012141;28;8953;-64
2022/05/05 11:33:58;;;;;;;;;33.20;29.60;;;;;28.95;33.08;100388.69;5018213;28;8848;-64
2022/05/05 11:36:26;;;;;;;;;29.20;27.20;;;;;28.75;33.97;100381.72;5033039;28;9007;-65
2022/05/05 11:38:54;;;;;;;;;23.00;20.80;;;;;29.11;33.74;100388.06;5033383;28;8922;-64
2022/05/05 11:41:22;;;;;;;;;25.40;23.20;;;;;29.46;32.93;100386.31;5033235;28;8999;-65
2022/05/05 11:46:36;;;;;;;;;26.80;24.00;;;;;29.73;32.62;100390.38;5017532;28;8870;-65
2022/05/05 11:49:04;;;;;;;;;27.40;26.00;;;;;28.95;33.40;100396.91;5016327;28;8847;-64
2022/05/05 11:51:32;;;;;;;;;22.00;21.40;;;;;28.24;34.34;100403.94;5016070;28;9536;-63
2022/05/05 11:54:00;;;;;;;;;23.60;21.20;;;;;27.66;35.45;100402.47;5021231;28;8860;-63
2022/05/05 11:56:28;;;;;;;;;29.00;24.80;;;;;27.65;35.34;100403.53;5016968;28;8871;-64
2022/05/05 12:01:41;;;;;;;;;27.40;24.40;;;;;28.08;34.26;100395.44;5034537;28;8871;-64
2022/05/05 12:04:10;;;;;;;;;28.00;25.80;;;;;28.00;34.43;100393.00;5035272;28;8860;-63
2022/05/05 12:06:38;;;;;;;;;27.80;26.60;;;;;27.86;34.99;100396.88;5035437;28;8866;-64
2022/05/05 12:09:06;;;;;;;;;26.00;21.60;;;;;28.02;34.29;100394.44;5019927;28;8842;-64
2022/05/05 12:11:35;;;;;;;;;25.00;24.40;;;;;28.23;33.68;100391.28;5016856;28;8839;-64
2022/05/05 12:14:06;;;;;;;;;20.60;20.00;;;;;28.07;33.94;100394.59;5016961;28;8850;-64
2022/05/05 12:16:34;;;;;;;;;20.60;15.40;;;;;27.37;35.39;100397.59;5016083;28;8871;-63
2022/05/05 12:19:02;;;;;;;;;13.80;12.60;;;;;27.09;35.58;100394.31;5029917;28;8923;-63
2022/05/05 12:21:38;;;;;;;;;24.00;23.60;;;;;26.73;36.45;100388.56;5035618;28;8844;-64
2022/05/05 12:24:05;;;;;;;;;22.60;20.40;;;;;26.45;36.59;100389.88;5035380;28;8898;-63
2022/05/05 12:26:34;;;;;;;;;21.20;19.40;;;;;26.27;36.62;100385.06;5035639;28;8865;-63
2022/05/05 12:29:02;;;;;;;;;20.00;18.40;;;;;26.33;36.73;100394.31;5021043;28;8846;-63
2022/05/05 12:31:30;;;;;;;;;17.00;16.20;;;;;26.52;35.60;100390.72;5015287;28;8858;-63
2022/05/05 12:34:18;;;;;;;;;20.40;18.00;;;;;26.67;36.10;100383.97;5015972;28;8871;-63
2022/05/05 12:36:47;;;;;;;;;20.80;18.80;;;;;26.65;36.11;100382.50;5015954;28;8850;-64
2022/05/05 12:39:14;;;;;;;;;17.00;15.80;;;;;26.61;36.21;100395.75;5031049;28;8983;-63
2022/05/05 12:41:42;;;;;;;;;13.40;12.40;;;;;26.58;36.23;100393.44;5035711;28;8875;-67
2022/05/05 12:44:10;;;;;;;;;18.20;16.00;;;;;26.44;36.38;100383.59;5035772;28;8841;-63
2022/05/05 12:46:38;;;;;;;;;17.00;16.60;;;;;26.22;36.54;100390.34;5035793;28;8860;-64
2022/05/05 12:49:06;;;;;;;;;17.00;15.80;;;;;26.02;36.97;100394.97;5019986;28;8835;-63
2022/05/05 12:51:35;;;;;;;;;16.80;15.20;;;;;25.89;36.92;100400.41;5014510;28;8854;-63
2022/05/05 12:59:46;;;;;;;;;20.00;17.40;;;;;25.63;36.93;100401.41;5031866;28;8825;-64
2022/05/05 13:02:14;;;;;;;;;17.20;16.80;;;;;25.39;36.92;100402.81;5034503;28;8985;-63
2022/05/05 13:04:42;;;;;;;;;17.60;16.00;;;;;25.29;37.47;100396.06;5034917;28;8852;-63
2022/05/05 13:07:10;;;;;;;;;19.60;17.80;;;;;25.31;37.15;100402.16;5035127;28;8946;-63